Time;durP1;ratioP1;P1;durP2;ratioP2;P2;SDS_P1;SDS_P2;PMS_P1;PMS_P2;Temp;Humidity;BMP_temperature;BMP_pressure;BME280_temperature;BME280_humidity;BME280_pressure;Samples;Min_cycle;Max_cycle;Signal;HPM_P1;HPM_P2
2022/06/12 00:20:45;;;;;;;13.13;5.07;;;18.70;1.00;;;;;;6212512;22;20432;-84
2022/06/12 00:23:14;;;;;;;18.53;4.87;;;18.60;1.00;;;;;;6224827;23;20374;-84
2022/06/12 00:25:40;;;;;;;13.20;5.67;;;18.60;1.00;;;;;;6226804;23;20149;-84
2022/06/12 00:28:06;;;;;;;13.00;4.60;;;18.50;1.00;;;;;;6224845;23;20406;-85
2022/06/12 00:30:33;;;;;;;14.50;5.13;;;18.50;1.00;;;;;;6243020;23;20386;-84
2022/06/12 00:32:58;;;;;;;13.57;5.20;;;18.50;1.00;;;;;;6226566;23;20266;-83
2022/06/12 00:35:35;;;;;;;12.20;4.10;;;18.40;1.00;;;;;;6226598;23;20393;-84
2022/06/12 00:38:02;;;;;;;9.50;5.10;;;18.40;1.00;;;;;;6223369;23;20164;-84
2022/06/12 00:40:28;;;;;;;8.10;4.20;;;18.30;1.00;;;;;;6224649;23;20487;-84
2022/06/12 00:42:58;;;;;;;11.00;5.17;;;18.30;1.00;;;;;;6225403;23;20383;-84
2022/06/12 00:45:51;;;;;;;11.27;5.03;;;18.30;1.00;;;;;;6225240;23;20141;-86
2022/06/12 00:48:29;;;;;;;9.30;4.63;;;18.20;1.00;;;;;;6223575;23;20433;-86
2022/06/12 00:51:03;;;;;;;11.90;4.80;;;18.10;1.00;;;;;;6226081;23;20403;-85
2022/06/12 00:53:37;;;;;;;11.10;5.33;;;18.10;1.00;;;;;;6226636;23;20941;-85
2022/06/12 00:56:06;;;;;;;11.83;4.83;;;18.10;1.00;;;;;;6230048;23;20363;-85
2022/06/12 00:58:41;;;;;;;11.67;4.70;;;17.90;1.00;;;;;;6228300;23;20402;-84
2022/06/12 01:01:14;;;;;;;15.33;5.13;;;17.90;1.00;;;;;;6219730;23;20410;-85
2022/06/12 01:06:33;;;;;;;9.13;3.87;;;17.90;1.00;;;;;;6222629;23;20713;-86
2022/06/12 01:06:34;;;;;;;11.50;4.50;;;17.90;1.00;;;;;;6222193;23;20363;-85
2022/06/12 01:09:14;;;;;;;9.60;4.53;;;17.90;1.00;;;;;;6221913;23;20364;-85
2022/06/12 01:11:43;;;;;;;12.77;4.43;;;17.90;1.00;;;;;;6223883;23;20405;-84
2022/06/12 01:14:11;;;;;;;7.87;3.87;;;17.90;1.00;;;;;;6220939;23;20417;-85
2022/06/12 01:16:45;;;;;;;11.63;4.80;;;17.90;1.00;;;;;;6222233;23;20390;-86
2022/06/12 01:19:27;;;;;;;13.80;4.60;;;17.80;1.00;;;;;;6222818;23;20366;-85
2022/06/12 01:22:07;;;;;;;11.63;4.40;;;17.80;1.00;;;;;;6222096;23;20402;-84
2022/06/12 01:24:34;;;;;;;11.70;4.43;;;17.80;1.00;;;;;;6221628;23;20864;-85
2022/06/12 01:27:09;;;;;;;14.93;5.03;;;17.80;1.00;;;;;;6221510;23;20384;-84
2022/06/12 01:29:54;;;;;;;7.87;4.67;;;17.80;1.00;;;;;;6222780;23;20442;-85
2022/06/12 01:32:37;;;;;;;13.13;4.93;;;17.80;1.00;;;;;;6222158;23;20374;-84
2022/06/12 01:35:38;;;;;;;12.57;4.50;;;17.70;1.00;;;;;;6222576;23;20381;-85
2022/06/12 01:38:25;;;;;;;11.73;4.00;;;17.70;1.00;;;;;;6222098;23;20365;-85
2022/06/12 01:40:59;;;;;;;6.90;3.97;;;17.60;1.00;;;;;;6222270;23;20393;-85
2022/06/12 01:43:32;;;;;;;7.53;3.67;;;17.60;1.00;;;;;;6222650;23;20407;-86
2022/06/12 01:46:03;;;;;;;11.90;4.00;;;17.50;1.00;;;;;;6222866;23;20409;-84
2022/06/12 01:48:44;;;;;;;10.00;3.70;;;17.40;1.00;;;;;;6222065;23;20787;-85
2022/06/12 01:51:38;;;;;;;12.47;4.27;;;17.40;7.40;;;;;;6222405;23;20402;-85
2022/06/12 01:54:27;;;;;;;10.43;3.53;;;17.30;6.90;;;;;;6221534;23;20424;-84
2022/06/12 01:57:19;;;;;;;7.43;4.20;;;17.20;27.50;;;;;;6222776;23;20422;-85
2022/06/12 01:59:55;;;;;;;14.60;4.30;;;17.10;98.20;;;;;;6224340;23;20781;-86
2022/06/12 02:03:03;;;;;;;14.17;4.77;;;17.10;99.90;;;;;;6222455;23;21116;-83
2022/06/12 02:05:44;;;;;;;14.97;5.27;;;17.00;99.90;;;;;;6222906;23;20398;-84
2022/06/12 02:08:17;;;;;;;11.50;4.00;;;16.90;99.90;;;;;;6223265;23;20366;-85
2022/06/12 02:10:51;;;;;;;23.00;4.80;;;16.90;99.90;;;;;;6222266;23;20409;-85
2022/06/12 02:13:27;;;;;;;12.17;5.10;;;16.80;99.90;;;;;;6223806;23;20404;-85
2022/06/12 02:16:04;;;;;;;10.67;4.60;;;16.80;99.90;;;;;;6224118;23;20356;-85
2022/06/12 02:18:35;;;;;;;8.80;4.90;;;16.70;99.90;;;;;;6223486;23;20358;-85
2022/06/12 02:21:07;;;;;;;12.90;4.30;;;16.70;1.00;;;;;;6223384;23;20418;-83
2022/06/12 02:23:48;;;;;;;12.73;4.57;;;16.70;1.00;;;;;;6226255;23;20393;-84
2022/06/12 02:26:18;;;;;;;10.03;4.50;;;16.70;1.00;;;;;;6228236;23;20362;-85
2022/06/12 02:28:52;;;;;;;18.57;5.60;;;16.60;1.00;;;;;;6221942;23;20385;-84
2022/06/12 02:31:26;;;;;;;13.60;5.00;;;16.60;1.00;;;;;;6220817;23;20393;-85
2022/06/12 02:33:58;;;;;;;11.07;5.30;;;16.60;1.00;;;;;;6222767;23;20480;-85
2022/06/12 02:36:29;;;;;;;16.60;5.80;;;16.60;1.00;;;;;;6219087;23;20381;-85
2022/06/12 02:39:03;;;;;;;10.27;4.80;;;16.50;1.00;;;;;;6222287;23;20421;-84
2022/06/12 02:41:35;;;;;;;9.57;4.63;;;16.50;99.90;;;;;;6222279;23;20390;-85
2022/06/12 02:44:07;;;;;;;17.67;6.13;;;16.50;99.90;;;;;;6220746;23;20371;-84
2022/06/12 02:46:48;;;;;;;11.83;4.83;;;16.50;99.90;;;;;;6222825;23;20705;-85
2022/06/12 02:49:16;;;;;;;14.37;5.63;;;16.40;99.90;;;;;;6221963;23;20369;-85
2022/06/12 02:52:06;;;;;;;13.87;5.03;;;16.40;99.90;;;;;;6221663;23;20432;-85
2022/06/12 02:54:56;;;;;;;15.10;4.83;;;16.40;1.00;;;;;;6223432;23;20487;-85
2022/06/12 02:57:43;;;;;;;13.23;5.00;;;16.30;1.00;;;;;;6220192;23;20373;-84
2022/06/12 03:00:31;;;;;;;12.53;6.53;;;16.30;1.00;;;;;;6220514;23;20415;-85
2022/06/12 03:03:14;;;;;;;13.20;6.17;;;16.30;1.00;;;;;;6221345;23;20414;-85
2022/06/12 03:05:42;;;;;;;10.23;6.20;;;16.20;43.90;;;;;;6221473;23;20388;-84
2022/06/12 03:08:15;;;;;;;14.07;5.10;;;16.20;99.90;;;;;;6219861;23;20384;-85
2022/06/12 03:11:03;;;;;;;16.13;7.43;;;16.20;99.90;;;;;;6219906;23;20400;-85
2022/06/12 03:13:30;;;;;;;12.50;5.63;;;16.20;1.00;;;;;;6219114;23;20421;-85
2022/06/12 03:16:09;;;;;;;12.50;5.97;;;16.20;1.00;;;;;;6221564;23;20376;-84
2022/06/12 03:18:39;;;;;;;17.03;5.70;;;16.20;1.00;;;;;;6220704;23;20361;-84
2022/06/12 03:21:14;;;;;;;21.70;6.33;;;16.20;1.00;;;;;;6218908;23;20415;-84
2022/06/12 03:24:13;;;;;;;12.40;6.50;;;16.20;9.00;;;;;;6220136;23;20365;-85
2022/06/12 03:27:05;;;;;;;12.57;5.80;;;16.10;67.10;;;;;;6208635;23;20481;-84
2022/06/12 03:29:36;;;;;;;9.40;5.97;;;16.20;99.90;;;;;;6220863;23;20802;-84
2022/06/12 03:32:13;;;;;;;13.30;6.43;;;16.20;99.90;;;;;;6222887;23;20364;-86
2022/06/12 03:34:53;;;;;;;16.90;5.50;;;16.20;99.90;;;;;;6223634;23;20415;-85
2022/06/12 03:37:26;;;;;;;14.00;6.30;;;16.20;1.00;;;;;;6222947;23;20369;-86
2022/06/12 03:40:32;;;;;;;16.80;6.97;;;16.10;1.00;;;;;;6224359;23;20895;-85
2022/06/12 03:43:19;;;;;;;13.47;6.40;;;16.10;1.00;;;;;;6225508;23;20357;-87
2022/06/12 03:46:05;;;;;;;9.40;6.40;;;16.10;1.00;;;;;;6220120;23;20384;-85
2022/06/12 03:48:49;;;;;;;17.20;6.80;;;16.10;1.00;;;;;;6218145;23;20471;-84
2022/06/12 03:51:24;;;;;;;14.60;6.00;;;16.10;1.00;;;;;;6219089;23;20389;-85
2022/06/12 03:53:56;;;;;;;11.90;6.80;;;16.10;1.00;;;;;;6221067;23;20408;-84
2022/06/12 03:59:23;;;;;;;15.60;6.83;;;16.20;1.00;;;;;;6219278;23;20376;-85
2022/06/12 04:01:50;;;;;;;19.93;7.37;;;16.20;1.00;;;;;;6220780;23;20830;-85
2022/06/12 04:04:18;;;;;;;15.77;6.17;;;16.20;1.00;;;;;;6219373;23;20420;-84
2022/06/12 04:06:45;;;;;;;10.93;6.60;;;16.30;60.00;;;;;;6221382;23;20389;-85
2022/06/12 04:09:17;;;;;;;18.60;7.67;;;16.30;1.00;;;;;;6220431;23;20427;-84
2022/06/12 04:11:48;;;;;;;16.50;7.27;;;16.30;5.90;;;;;;6220150;23;20498;-84
2022/06/12 04:14:16;;;;;;;12.83;6.80;;;16.40;1.00;;;;;;6220039;23;20393;-85
2022/06/12 04:16:51;;;;;;;19.60;6.43;;;16.40;1.00;;;;;;6219648;23;20475;-84
2022/06/12 04:19:21;;;;;;;12.70;6.00;;;16.50;1.00;;;;;;6219057;23;20367;-84
2022/06/12 04:22:11;;;;;;;12.27;7.20;;;16.50;1.00;;;;;;6218885;23;20408;-84
2022/06/12 04:24:49;;;;;;;15.63;6.70;;;16.50;1.00;;;;;;6220309;23;20417;-84
2022/06/12 04:27:18;;;;;;;14.03;6.70;;;16.60;1.00;;;;;;6221039;23;20361;-84
2022/06/12 04:30:25;;;;;;;11.70;6.30;;;16.60;1.00;;;;;;6223104;23;20393;-84
2022/06/12 04:33:14;;;;;;;20.50;8.10;;;16.70;1.00;;;;;;6188411;23;20396;-85
2022/06/12 04:35:48;;;;;;;11.57;6.80;;;16.70;99.90;;;;;;6222006;23;20357;-85
2022/06/12 04:38:13;;;;;;;12.37;6.23;;;16.80;99.90;;;;;;6221155;23;20925;-84
2022/06/12 04:40:39;;;;;;;17.53;7.73;;;16.80;99.90;;;;;;6219957;23;20504;-85
2022/06/12 04:43:05;;;;;;;12.77;6.60;;;16.90;68.20;;;;;;6222799;23;20188;-85
2022/06/12 04:45:30;;;;;;;15.00;7.67;;;16.90;22.80;;;;;;6222186;23;20172;-85
2022/06/12 04:47:56;;;;;;;18.67;8.63;;;17.00;1.00;;;;;;6221821;23;20232;-84
2022/06/12 04:50:21;;;;;;;13.43;6.70;;;17.00;1.00;;;;;;6222557;23;20185;-84
2022/06/12 04:52:47;;;;;;;15.30;6.73;;;17.00;99.90;;;;;;6220160;23;20163;-84
2022/06/12 04:55:12;;;;;;;12.30;5.13;;;17.10;99.90;;;;;;6220119;23;20166;-84
2022/06/12 04:57:39;;;;;;;11.63;5.80;;;17.10;17.20;;;;;;6222927;23;20498;-85
2022/06/12 05:00:05;;;;;;;13.50;5.30;;;17.10;1.00;;;;;;6222586;23;20166;-85
2022/06/12 05:02:31;;;;;;;10.83;6.53;;;17.20;99.90;;;;;;6224521;23;20386;-84
2022/06/12 05:04:56;;;;;;;10.37;6.87;;;17.20;99.90;;;;;;6223204;23;20385;-85
2022/06/12 05:07:22;;;;;;;14.53;5.70;;;17.30;99.90;;;;;;6224149;23;20599;-83
2022/06/12 05:09:47;;;;;;;10.77;5.90;;;17.40;99.90;;;;;;6225076;23;20621;-85
2022/06/12 05:12:13;;;;;;;8.93;4.80;;;17.40;99.90;;;;;;6225406;23;20532;-85
2022/06/12 05:14:41;;;;;;;14.93;5.97;;;17.50;54.40;;;;;;6225446;23;20160;-85
2022/06/12 05:17:11;;;;;;;9.00;5.60;;;17.50;1.00;;;;;;6223880;23;20427;-85
2022/06/12 05:19:39;;;;;;;6.07;4.97;;;17.50;1.00;;;;;;6224335;23;20461;-85
2022/06/12 05:22:07;;;;;;;10.13;5.53;;;17.60;1.00;;;;;;6224892;23;20461;-85
2022/06/12 05:24:33;;;;;;;8.90;4.50;;;17.70;1.00;;;;;;6225203;23;20517;-85
2022/06/12 05:26:59;;;;;;;8.40;4.87;;;17.70;1.00;;;;;;6223602;23;20408;-82
2022/06/12 05:29:33;;;;;;;8.30;4.80;;;17.80;1.00;;;;;;6224162;23;20569;-84
2022/06/12 05:31:58;;;;;;;12.27;4.70;;;17.90;99.90;;;;;;6223171;23;20372;-85
2022/06/12 05:34:26;;;;;;;10.67;5.80;;;17.90;99.90;;;;;;6224336;23;20700;-84
2022/06/12 05:36:52;;;;;;;10.37;4.33;;;18.00;99.90;;;;;;6215815;23;20211;-85
2022/06/12 05:39:19;;;;;;;10.57;5.17;;;18.10;99.90;;;;;;6214790;23;20380;-85
2022/06/12 05:41:45;;;;;;;10.03;4.60;;;18.20;99.90;;;;;;6215339;23;20410;-85
2022/06/12 05:44:12;;;;;;;8.37;4.73;;;18.30;99.90;;;;;;6214231;23;20428;-86
2022/06/12 05:46:38;;;;;;;12.90;4.70;;;18.40;96.00;;;;;;6214244;23;20375;-85
2022/06/12 05:49:05;;;;;;;7.60;4.40;;;18.50;30.00;;;;;;6215332;23;20378;-85
2022/06/12 05:51:31;;;;;;;7.27;3.57;;;18.60;1.00;;;;;;6215578;23;20487;-86
2022/06/12 05:53:57;;;;;;;15.23;3.83;;;18.60;1.00;;;;;;6214354;23;20389;-85
2022/06/12 05:56:26;;;;;;;9.53;3.57;;;18.70;1.00;;;;;;6215460;23;20426;-84
2022/06/12 05:58:51;;;;;;;6.97;3.93;;;18.80;1.00;;;;;;6214556;23;20383;-85
2022/06/12 06:01:19;;;;;;;9.70;3.80;;;18.90;1.00;;;;;;6214912;23;20415;-85
2022/06/12 06:03:46;;;;;;;9.40;3.37;;;19.00;1.00;;;;;;6214144;23;20213;-85
2022/06/12 06:06:17;;;;;;;13.27;2.93;;;19.20;1.00;;;;;;6215132;23;20409;-84
2022/06/12 06:08:43;;;;;;;12.73;4.03;;;19.40;1.00;;;;;;6214798;23;20385;-86
2022/06/12 06:11:08;;;;;;;7.90;2.87;;;19.80;99.90;;;;;;6214695;23;20719;-86
2022/06/12 06:13:37;;;;;;;5.57;2.20;;;20.90;99.90;;;;;;6213786;23;20377;-86
2022/06/12 06:16:03;;;;;;;5.93;2.90;;;23.80;99.90;;;;;;6215580;23;20153;-86
2022/06/12 06:18:28;;;;;;;6.87;2.63;;;28.60;99.90;;;;;;6213635;23;20624;-87
2022/06/12 12:22:47;;;;;;;7.83;2.30;;;35.00;76.10;;;;;;6203052;23;20479;-86
2022/06/12 12:25:36;;;;;;;8.53;2.47;;;35.80;82.10;;;;;;6247380;23;20415;-86
2022/06/12 12:28:25;;;;;;;7.33;2.57;;;36.90;86.80;;;;;;6246025;23;20439;-86
2022/06/12 12:30:57;;;;;;;4.80;2.43;;;37.80;89.60;;;;;;6205037;23;20389;-86
2022/06/12 12:33:40;;;;;;;8.93;3.23;;;38.00;89.30;;;;;;6250054;23;20407;-86
2022/06/12 12:41:58;;;;;;;6.23;2.57;;;37.70;85.20;;;;;;6252476;22;20438;-86
2022/06/12 12:44:35;;;;;;;6.30;2.40;;;36.20;77.70;;;;;;6251471;23;20818;-86
2022/06/12 12:47:01;;;;;;;7.00;2.33;;;34.80;72.00;;;;;;6252873;23;20383;-86
2022/06/12 12:49:34;;;;;;;7.83;2.77;;;33.50;69.00;;;;;;6253311;23;20388;-85
2022/06/12 12:52:13;;;;;;;8.13;2.70;;;33.10;69.20;;;;;;6259592;22;20434;-86
2022/06/12 12:54:57;;;;;;;8.33;2.60;;;33.60;74.20;;;;;;6261691;23;20743;-85
2022/06/12 12:57:36;;;;;;;13.17;2.33;;;33.50;72.20;;;;;;6262661;22;20482;-85
2022/06/12 13:00:04;;;;;;;6.53;2.20;;;32.80;70.80;;;;;;6262576;22;20372;-85
2022/06/12 13:02:35;;;;;;;8.93;2.47;;;32.20;69.50;;;;;;6262035;22;20400;-85
2022/06/12 13:05:19;;;;;;;9.13;2.57;;;31.90;70.10;;;;;;6265001;22;20408;-85
2022/06/12 13:08:03;;;;;;;7.00;2.70;;;31.30;69.00;;;;;;6267765;22;20380;-85
2022/06/12 13:10:44;;;;;;;5.07;2.30;;;31.40;71.20;;;;;;6266976;23;20380;-85
2022/06/12 13:13:12;;;;;;;5.73;2.03;;;31.80;75.00;;;;;;6261828;22;20399;-85
2022/06/12 13:16:11;;;;;;;7.33;2.30;;;31.80;76.10;;;;;;6263080;22;20371;-85
2022/06/12 13:19:03;;;;;;;6.70;2.40;;;31.50;74.90;;;;;;6256060;22;20400;-86
2022/06/12 13:21:48;;;;;;;5.30;2.20;;;31.90;76.50;;;;;;6262636;22;20411;-86
2022/06/12 13:24:26;;;;;;;5.80;2.33;;;31.80;76.70;;;;;;6262755;23;20443;-86
2022/06/12 13:26:53;;;;;;;7.10;2.40;;;31.80;77.60;;;;;;6263137;23;20359;-86
2022/06/12 13:29:21;;;;;;;5.50;2.33;;;32.20;81.00;;;;;;6236452;23;20414;-86
2022/06/12 13:32:05;;;;;;;6.17;2.10;;;32.70;83.20;;;;;;6262927;22;20391;-85
2022/06/12 13:34:31;;;;;;;8.57;2.40;;;32.50;83.60;;;;;;6235772;23;20379;-86
2022/06/12 13:36:58;;;;;;;6.10;2.20;;;32.80;96.00;;;;;;6262188;23;20428;-85
2022/06/12 13:39:35;;;;;;;6.70;2.17;;;32.50;84.60;;;;;;6262860;23;20701;-85
2022/06/12 13:42:08;;;;;;;7.20;2.40;;;31.90;80.10;;;;;;6264002;22;20388;-86
2022/06/12 13:44:37;;;;;;;9.30;2.83;;;31.50;79.60;;;;;;6264269;23;20427;-85
2022/06/12 13:47:20;;;;;;;3.47;1.73;;;31.30;80.80;;;;;;6264045;23;20364;-86
2022/06/12 13:49:50;;;;;;;11.97;2.80;;;31.40;82.30;;;;;;6264371;23;20360;-86
2022/06/12 13:52:31;;;;;;;7.93;2.30;;;30.90;78.60;;;;;;6264778;22;20392;-86
2022/06/12 13:54:57;;;;;;;7.90;2.53;;;30.50;77.40;;;;;;6237653;23;20380;-85
2022/06/12 13:57:34;;;;;;;6.93;2.67;;;30.30;77.10;;;;;;6265086;23;20422;-86
2022/06/12 14:00:00;;;;;;;7.67;2.30;;;30.20;78.40;;;;;;6264952;23;20140;-86
2022/06/12 14:02:31;;;;;;;9.80;2.67;;;30.10;78.70;;;;;;6264352;22;20415;-85
2022/06/12 14:05:01;;;;;;;7.53;2.30;;;30.10;80.00;;;;;;6264649;23;20404;-86
2022/06/12 14:07:31;;;;;;;6.20;2.50;;;30.00;80.10;;;;;;6264244;23;20431;-86
2022/06/12 14:10:05;;;;;;;4.77;1.70;;;29.90;82.80;;;;;;6238163;23;20375;-85
2022/06/12 14:12:34;;;;;;;7.90;3.03;;;29.90;82.60;;;;;;6264485;22;20403;-85
2022/06/12 14:15:01;;;;;;;5.00;2.10;;;29.70;82.10;;;;;;6265506;23;20368;-85
2022/06/12 14:17:32;;;;;;;6.17;2.40;;;29.60;82.10;;;;;;6263866;23;20372;-85
2022/06/12 14:20:03;;;;;;;4.60;2.17;;;29.50;81.20;;;;;;6263989;23;20706;-85
2022/06/12 14:22:42;;;;;;;8.00;2.17;;;29.50;82.80;;;;;;6263911;22;20407;-85
2022/06/12 14:25:16;;;;;;;8.77;2.67;;;29.70;85.30;;;;;;6265147;23;20635;-85
2022/06/12 14:27:58;;;;;;;5.50;2.03;;;29.70;84.30;;;;;;6263871;23;20371;-85
2022/06/12 14:30:38;;;;;;;6.07;1.90;;;29.60;83.90;;;;;;6264795;23;20349;-85
2022/06/12 14:33:22;;;;;;;4.20;1.60;;;29.60;82.90;;;;;;6237560;23;20399;-85
2022/06/12 14:35:48;;;;;;;5.93;1.90;;;29.40;82.30;;;;;;6264454;23;20356;-85
2022/06/12 14:38:20;;;;;;;4.53;1.87;;;29.40;82.50;;;;;;6264527;23;20410;-85
2022/06/12 14:40:47;;;;;;;6.10;2.40;;;29.30;82.00;;;;;;6264997;23;20152;-85
2022/06/12 14:43:29;;;;;;;9.23;2.03;;;29.40;82.80;;;;;;6264636;23;20408;-85
2022/06/12 14:45:59;;;;;;;3.17;2.00;;;29.40;83.40;;;;;;6265210;23;20416;-86
2022/06/12 14:48:36;;;;;;;2.83;1.80;;;29.50;83.80;;;;;;6264292;23;20448;-85
2022/06/12 14:51:02;;;;;;;5.80;2.20;;;29.50;84.00;;;;;;6238218;22;20425;-86
2022/06/12 14:53:28;;;;;;;5.20;2.10;;;29.50;84.80;;;;;;6238384;23;20387;-86
2022/06/12 14:55:55;;;;;;;5.23;2.40;;;29.50;83.70;;;;;;6265481;23;20376;-85
2022/06/12 14:58:25;;;;;;;6.77;1.83;;;29.50;83.90;;;;;;6265812;23;20156;-86
2022/06/12 15:00:51;;;;;;;7.00;2.10;;;29.40;82.90;;;;;;6239204;22;20406;-86
2022/06/12 15:03:17;;;;;;;6.93;1.97;;;29.40;83.40;;;;;;6265479;23;20411;-85
2022/06/12 15:05:43;;;;;;;4.57;2.27;;;29.40;83.70;;;;;;6238242;23;20392;-85
2022/06/12 15:08:09;;;;;;;7.30;2.50;;;29.40;85.60;;;;;;6265140;23;20138;-86
2022/06/12 15:10:38;;;;;;;10.30;3.67;;;29.20;83.30;;;;;;6239490;23;20402;-85
2022/06/12 15:13:03;;;;;;;4.60;2.47;;;28.80;81.20;;;;;;6264671;22;20387;-84
2022/06/12 15:15:29;;;;;;;5.10;2.50;;;28.70;82.00;;;;;;6265225;23;20368;-85
2022/06/12 15:17:55;;;;;;;6.17;2.00;;;28.60;83.50;;;;;;6263101;23;20149;-85
2022/06/12 15:20:20;;;;;;;6.10;1.90;;;28.60;85.10;;;;;;6264245;23;20152;-85
2022/06/12 15:22:47;;;;;;;10.20;2.60;;;28.30;83.90;;;;;;6263592;22;20173;-86
2022/06/12 15:30:50;;;;;;;5.33;1.93;;;28.40;86.90;;;;;;6263587;22;20355;-85
2022/06/12 15:33:18;;;;;;;5.43;1.97;;;28.50;87.50;;;;;;6237638;23;20384;-85
2022/06/12 15:35:44;;;;;;;3.20;1.83;;;28.60;88.20;;;;;;6264612;23;20399;-85
2022/06/12 15:38:09;;;;;;;8.33;2.50;;;28.60;88.20;;;;;;6263385;23;20372;-85
2022/06/12 15:40:35;;;;;;;5.93;2.13;;;28.40;87.80;;;;;;6263930;23;20156;-86
2022/06/12 15:43:01;;;;;;;9.60;2.70;;;28.40;89.30;;;;;;6265188;22;20168;-85
2022/06/12 15:45:27;;;;;;;6.67;2.03;;;28.30;89.60;;;;;;6264585;23;20183;-85
2022/06/12 15:47:55;;;;;;;5.37;2.30;;;28.10;87.50;;;;;;6262294;23;20145;-85
2022/06/12 15:50:20;;;;;;;4.50;2.20;;;27.90;87.30;;;;;;6264215;23;20375;-85
2022/06/12 15:52:46;;;;;;;6.00;2.30;;;27.60;85.90;;;;;;6264611;22;20394;-84
2022/06/12 15:55:12;;;;;;;8.33;3.00;;;27.40;85.60;;;;;;6263420;23;20156;-85
2022/06/12 15:57:37;;;;;;;4.70;2.13;;;27.40;86.10;;;;;;6263567;23;20157;-85
2022/06/12 16:00:04;;;;;;;7.33;2.33;;;27.30;87.10;;;;;;6264451;23;20168;-84
2022/06/12 16:02:29;;;;;;;7.23;2.53;;;27.20;86.40;;;;;;6264999;22;20172;-86
2022/06/12 16:04:55;;;;;;;8.43;2.07;;;27.20;87.30;;;;;;6264363;23;20419;-85
2022/06/12 16:07:22;;;;;;;7.83;2.67;;;27.30;88.80;;;;;;6264330;23;20156;-86
2022/06/12 16:09:48;;;;;;;3.80;2.20;;;27.50;89.70;;;;;;6263438;23;20386;-85
2022/06/12 16:12:16;;;;;;;5.90;2.13;;;27.60;90.90;;;;;;6264250;22;20388;-85
2022/06/12 16:14:42;;;;;;;5.40;2.07;;;27.70;91.00;;;;;;6264047;23;20149;-85
2022/06/12 16:17:09;;;;;;;4.70;1.93;;;27.60;90.80;;;;;;6263972;23;20379;-85
2022/06/12 16:19:34;;;;;;;6.50;2.20;;;27.60;90.50;;;;;;6266099;23;20176;-85
2022/06/12 16:22:00;;;;;;;8.27;2.20;;;27.60;89.90;;;;;;6266169;22;20396;-86
2022/06/12 16:24:26;;;;;;;5.53;2.00;;;27.60;90.60;;;;;;6240320;23;20185;-85
2022/06/12 16:26:51;;;;;;;6.63;1.67;;;27.70;90.50;;;;;;6266735;23;20201;-85
2022/06/12 16:29:17;;;;;;;6.43;2.20;;;27.70;90.00;;;;;;6266435;23;20201;-85
2022/06/12 16:31:43;;;;;;;4.70;1.83;;;27.70;90.00;;;;;;6266381;22;20200;-85
2022/06/12 16:34:08;;;;;;;5.10;2.13;;;27.80;90.50;;;;;;6266801;23;20376;-85
2022/06/12 16:36:35;;;;;;;6.53;2.50;;;27.80;90.40;;;;;;6240381;23;20183;-86
2022/06/12 16:39:02;;;;;;;6.23;1.90;;;27.70;90.00;;;;;;6266767;23;20232;-85
2022/06/12 16:41:46;;;;;;;8.27;2.33;;;27.70;90.40;;;;;;6266213;22;20403;-85
2022/06/12 16:44:12;;;;;;;5.30;2.10;;;27.70;90.30;;;;;;6266304;23;20404;-86
2022/06/12 16:46:44;;;;;;;4.93;2.40;;;27.60;90.00;;;;;;6266888;23;20387;-85
2022/06/12 16:49:15;;;;;;;7.03;2.20;;;27.60;90.00;;;;;;6266968;23;20359;-86
2022/06/12 16:52:00;;;;;;;4.77;2.00;;;27.60;89.80;;;;;;6265863;22;20388;-85
2022/06/12 16:54:32;;;;;;;4.60;2.10;;;27.50;89.00;;;;;;6238681;23;20408;-85
2022/06/12 16:56:58;;;;;;;6.30;2.13;;;27.40;88.60;;;;;;6266340;23;20369;-85
2022/06/12 16:59:26;;;;;;;5.73;1.90;;;27.30;88.20;;;;;;6238722;23;20392;-85
2022/06/12 17:01:52;;;;;;;5.60;2.10;;;27.30;88.30;;;;;;6242228;23;20431;-85
2022/06/12 17:04:18;;;;;;;4.40;1.93;;;27.30;88.70;;;;;;6265786;23;20430;-86
2022/06/12 17:06:46;;;;;;;5.83;1.83;;;27.20;88.00;;;;;;6239382;23;20175;-86
2022/06/12 17:09:12;;;;;;;6.10;2.57;;;27.20;88.50;;;;;;6238268;23;20423;-86
2022/06/12 17:11:41;;;;;;;4.97;2.30;;;27.10;88.60;;;;;;6252173;22;20388;-86
2022/06/12 17:14:09;;;;;;;8.47;2.83;;;26.90;88.00;;;;;;6248159;23;20179;-89
2022/06/12 17:16:34;;;;;;;5.97;1.83;;;26.70;86.40;;;;;;6221242;23;20422;-85
2022/06/12 17:21:47;;;;;;;9.50;2.23;;;26.10;84.40;;;;;;6248527;22;20199;-87
2022/06/12 17:24:14;;;;;;;6.27;3.00;;;25.90;83.50;;;;;;6222043;23;20513;-86
2022/06/12 17:26:44;;;;;;;7.33;2.87;;;25.80;85.00;;;;;;6248195;23;20410;-86
2022/06/12 17:29:31;;;;;;;;;;;;;;;;;;;;;
2022/06/12 17:31:57;;;;;;;7.03;3.60;;;25.60;88.70;;;;;;6245430;22;20499;-86
2022/06/12 17:34:26;;;;;;;7.07;3.70;;;25.50;90.30;;;;;;6218652;23;20417;-86
2022/06/12 17:36:54;;;;;;;9.87;3.10;;;25.40;90.90;;;;;;6219505;23;20183;-85
2022/06/12 17:39:22;;;;;;;6.60;3.20;;;25.20;91.20;;;;;;6247069;23;20427;-86
2022/06/12 17:41:55;;;;;;;7.63;3.50;;;25.10;92.20;;;;;;6247062;22;20400;-88
2022/06/12 17:44:23;;;;;;;8.07;3.67;;;25.00;92.40;;;;;;6247188;23;20430;-88
2022/06/12 17:46:49;;;;;;;7.30;3.63;;;24.90;93.40;;;;;;6247488;23;20762;-87
2022/06/12 17:49:19;;;;;;;6.83;3.60;;;24.80;94.10;;;;;;6249499;23;20423;-87
2022/06/12 17:51:47;;;;;;;7.67;3.67;;;24.70;94.50;;;;;;6246435;22;20172;-87
2022/06/12 17:54:14;;;;;;;6.50;2.90;;;24.60;95.30;;;;;;6219607;23;20416;-88
2022/06/12 17:56:39;;;;;;;12.60;3.43;;;24.50;96.60;;;;;;6219170;23;20732;-87
2022/06/12 17:59:08;;;;;;;8.87;3.50;;;24.60;97.60;;;;;;6246096;23;20381;-87
2022/06/12 18:01:34;;;;;;;6.90;3.40;;;24.60;98.50;;;;;;6246047;22;20528;-87
2022/06/12 18:04:06;;;;;;;5.60;3.07;;;24.50;99.10;;;;;;6245969;23;20467;-87
2022/06/12 18:06:32;;;;;;;9.13;3.27;;;24.50;99.30;;;;;;6219034;23;20219;-87
2022/06/12 18:09:00;;;;;;;8.07;2.63;;;24.40;99.80;;;;;;6219472;23;20433;-87
2022/06/12 18:11:27;;;;;;;6.93;2.23;;;24.30;99.90;;;;;;6245026;22;20168;-87
2022/06/12 18:20:01;;;;;;;7.00;2.20;;;24.20;99.90;;;;;;6244915;23;20357;-87
